createdAt,value
2017-11-26T00:00:00.356Z,4.00
2017-11-26T00:01:00.334Z,4.00
2017-11-26T00:02:00.310Z,4.00
2017-11-26T00:03:00.292Z,4.00
2017-11-26T00:04:00.271Z,4.00
2017-11-26T00:05:00.241Z,4.00
2017-11-26T00:06:00.216Z,4.00
2017-11-26T00:07:00.192Z,4.00
2017-11-26T00:08:00.170Z,4.00
2017-11-26T00:09:00.146Z,4.00
2017-11-26T00:10:00.121Z,4.00
2017-11-26T00:11:00.099Z,4.00
2017-11-26T00:12:00.076Z,4.00
2017-11-26T00:13:00.052Z,4.00
2017-11-26T00:14:00.031Z,4.00
2017-11-26T00:15:00.035Z,0.00
2017-11-26T00:15:59.982Z,4.00
2017-11-26T00:16:59.960Z,0.00
2017-11-26T00:17:59.940Z,0.00
2017-11-26T00:18:59.913Z,4.00
2017-11-26T00:19:59.889Z,0.00
2017-11-26T00:20:59.872Z,0.00
2017-11-26T00:21:59.842Z,4.00
2017-11-26T00:22:59.819Z,4.00
2017-11-26T00:23:59.798Z,4.00
2017-11-26T00:24:59.777Z,0.00
2017-11-26T00:25:59.757Z,4.00
2017-11-26T00:26:59.733Z,4.00
2017-11-26T00:27:59.735Z,0.00
2017-11-26T00:28:59.679Z,4.00
2017-11-26T00:29:59.665Z,0.00
2017-11-26T00:30:59.745Z,0.00
2017-11-26T00:31:59.618Z,0.00
2017-11-26T00:32:59.599Z,0.00
2017-11-26T00:33:59.567Z,0.00
2017-11-26T00:34:59.618Z,4.00
2017-11-26T00:35:59.518Z,4.00
2017-11-26T00:36:59.580Z,0.00
2017-11-26T00:37:59.471Z,0.00
2017-11-26T00:38:59.451Z,0.00
2017-11-26T00:39:59.433Z,0.00
2017-11-26T00:40:59.521Z,0.00
2017-11-26T00:41:59.386Z,0.00
2017-11-26T00:42:59.356Z,0.00
2017-11-26T00:43:59.336Z,0.00
2017-11-26T00:44:59.338Z,0.00
2017-11-26T00:45:59.287Z,4.00
2017-11-26T00:46:59.321Z,4.00
2017-11-26T00:47:59.237Z,0.00
2017-11-26T00:48:59.215Z,4.00
2017-11-26T00:49:59.191Z,4.00
2017-11-26T00:50:59.168Z,0.00
2017-11-26T00:51:59.148Z,0.00
2017-11-26T00:52:59.121Z,0.00
2017-11-26T00:53:59.099Z,0.00
2017-11-26T00:54:59.074Z,4.00
2017-11-26T00:55:59.053Z,0.00
2017-11-26T00:56:59.027Z,0.00
2017-11-26T00:57:59.032Z,0.00
2017-11-26T00:58:58.983Z,0.00
2017-11-26T00:59:58.992Z,0.00
2017-11-26T01:00:58.936Z,0.00
2017-11-26T01:01:58.913Z,0.00
2017-11-26T01:02:58.888Z,0.00
2017-11-26T01:03:58.879Z,0.00
2017-11-26T01:04:58.845Z,0.00
2017-11-26T01:05:58.817Z,0.00
2017-11-26T01:06:58.803Z,0.00
2017-11-26T01:07:58.782Z,0.00
2017-11-26T01:08:58.750Z,0.00
2017-11-26T01:09:58.723Z,0.00
2017-11-26T01:10:58.705Z,0.00
2017-11-26T01:11:58.683Z,0.00
2017-11-26T01:12:58.656Z,0.00
2017-11-26T01:13:58.636Z,0.00
2017-11-26T01:14:58.612Z,0.00
2017-11-26T01:15:58.587Z,0.00
2017-11-26T01:16:58.564Z,0.00
2017-11-26T01:17:58.558Z,0.00
2017-11-26T01:18:58.526Z,0.00
2017-11-26T01:19:58.491Z,0.00
2017-11-26T01:20:58.474Z,0.00
2017-11-26T01:21:58.442Z,0.00
2017-11-26T01:22:58.423Z,0.00
2017-11-26T01:23:58.407Z,0.00
2017-11-26T01:24:58.382Z,0.00
2017-11-26T01:25:58.349Z,0.00
2017-11-26T01:26:58.329Z,0.00
2017-11-26T01:27:58.306Z,0.00
2017-11-26T01:28:58.279Z,0.00
2017-11-26T01:29:58.258Z,0.00
2017-11-26T01:30:58.242Z,0.00
2017-11-26T01:31:58.211Z,0.00
2017-11-26T01:32:58.189Z,0.00
2017-11-26T01:33:58.161Z,0.00
2017-11-26T01:34:58.138Z,0.00
2017-11-26T01:35:58.122Z,0.00
2017-11-26T01:36:58.091Z,0.00
2017-11-26T01:37:58.068Z,0.00
2017-11-26T01:38:58.043Z,0.00
2017-11-26T01:39:58.072Z,0.00
2017-11-26T01:40:57.997Z,0.00
2017-11-26T01:41:57.996Z,4.00
2017-11-26T01:42:57.976Z,0.00
2017-11-26T01:43:57.926Z,0.00
2017-11-26T01:44:57.900Z,0.00
2017-11-26T01:45:57.978Z,0.00
2017-11-26T01:46:57.875Z,0.00
2017-11-26T01:47:57.831Z,0.00
2017-11-26T01:48:57.805Z,0.00
2017-11-26T01:49:57.780Z,0.00
2017-11-26T01:50:57.762Z,0.00
2017-11-26T01:51:57.807Z,0.00
2017-11-26T01:52:57.712Z,0.00
2017-11-26T01:53:57.685Z,0.00
2017-11-26T01:54:57.665Z,0.00
2017-11-26T01:55:57.704Z,0.00
2017-11-26T01:56:57.614Z,0.00
2017-11-26T01:57:57.591Z,0.00
2017-11-26T01:58:57.567Z,4.00
2017-11-26T01:59:57.542Z,0.00
2017-11-26T02:00:57.521Z,0.00
2017-11-26T02:01:57.499Z,0.00
2017-11-26T02:02:57.481Z,0.00
2017-11-26T02:03:57.445Z,0.00
2017-11-26T02:04:57.423Z,0.00
2017-11-26T02:05:57.398Z,0.00
2017-11-26T02:06:57.378Z,0.00
2017-11-26T02:07:57.352Z,0.00
2017-11-26T02:08:57.332Z,0.00
2017-11-26T02:09:57.302Z,0.00
2017-11-26T02:10:57.284Z,0.00
2017-11-26T02:11:57.255Z,0.00
2017-11-26T02:12:57.233Z,0.00
2017-11-26T02:13:57.217Z,4.00
2017-11-26T02:14:57.183Z,0.00
2017-11-26T02:15:57.167Z,0.00
2017-11-26T02:16:57.132Z,0.00
2017-11-26T02:17:57.132Z,4.00
2017-11-26T02:18:57.088Z,0.00
2017-11-26T02:19:57.063Z,0.00
2017-11-26T02:20:57.041Z,4.00
2017-11-26T02:21:57.029Z,4.00
2017-11-26T02:22:56.993Z,0.00
2017-11-26T02:23:56.971Z,0.00
2017-11-26T02:24:56.950Z,0.00
2017-11-26T02:25:56.921Z,0.00
2017-11-26T02:26:56.896Z,0.00
2017-11-26T02:27:56.876Z,0.00
2017-11-26T02:28:56.849Z,0.00
2017-11-26T02:29:56.825Z,0.00
2017-11-26T02:30:56.799Z,0.00
2017-11-26T02:31:56.780Z,0.00
2017-11-26T02:32:56.755Z,0.00
2017-11-26T02:33:56.755Z,0.00
2017-11-26T02:34:56.709Z,0.00
2017-11-26T02:35:56.681Z,0.00
2017-11-26T02:36:56.667Z,0.00
2017-11-26T02:37:56.665Z,0.00
2017-11-26T02:38:56.613Z,0.00
2017-11-26T02:39:56.587Z,0.00
2017-11-26T02:40:56.577Z,0.00
2017-11-26T02:41:56.540Z,0.00
2017-11-26T02:42:56.526Z,0.00
2017-11-26T02:43:56.493Z,0.00
2017-11-26T02:44:56.470Z,0.00
2017-11-26T02:45:56.447Z,0.00
2017-11-26T02:46:56.430Z,0.00
2017-11-26T02:47:56.396Z,0.00
2017-11-26T02:48:56.378Z,0.00
2017-11-26T02:49:56.358Z,0.00
2017-11-26T02:50:56.331Z,0.00
2017-11-26T02:51:56.326Z,0.00
2017-11-26T02:52:56.280Z,0.00
2017-11-26T02:53:56.257Z,0.00
2017-11-26T02:54:56.242Z,0.00
2017-11-26T02:55:56.207Z,0.00
2017-11-26T02:56:56.205Z,0.00
2017-11-26T02:57:56.160Z,0.00
2017-11-26T02:58:56.144Z,0.00
2017-11-26T02:59:56.115Z,0.00
2017-11-26T03:00:56.120Z,0.00
2017-11-26T03:01:56.068Z,0.00
2017-11-26T03:02:56.172Z,0.00
2017-11-26T03:03:56.015Z,0.00
2017-11-26T03:04:55.995Z,0.00
2017-11-26T03:05:55.970Z,0.00
2017-11-26T03:06:56.000Z,0.00
2017-11-26T03:07:55.932Z,0.00
2017-11-26T03:08:55.899Z,0.00
2017-11-26T03:09:55.873Z,0.00
2017-11-26T03:10:55.853Z,0.00
2017-11-26T03:11:55.829Z,0.00
2017-11-26T03:12:55.803Z,0.00
2017-11-26T03:13:55.785Z,0.00
2017-11-26T03:14:55.755Z,0.00
2017-11-26T03:15:55.732Z,0.00
2017-11-26T03:16:55.717Z,0.00
2017-11-26T03:17:55.682Z,0.00
2017-11-26T03:18:55.663Z,0.00
2017-11-26T03:19:55.637Z,0.00
2017-11-26T03:20:55.613Z,0.00
2017-11-26T03:21:55.587Z,0.00
2017-11-26T03:22:55.564Z,0.00
2017-11-26T03:23:55.542Z,0.00
2017-11-26T03:24:55.541Z,0.00
2017-11-26T03:25:55.505Z,0.00
2017-11-26T03:26:55.472Z,0.00
2017-11-26T03:27:55.445Z,0.00
2017-11-26T03:28:55.422Z,0.00
2017-11-26T03:29:55.400Z,0.00
2017-11-26T03:30:55.376Z,4.00
2017-11-26T03:31:55.352Z,0.00
2017-11-26T03:32:55.330Z,0.00
2017-11-26T03:33:55.302Z,4.00
2017-11-26T03:34:55.284Z,4.00
2017-11-26T03:35:55.260Z,4.00
2017-11-26T03:36:55.232Z,4.00
2017-11-26T03:37:55.217Z,4.00
2017-11-26T03:38:55.183Z,4.00
2017-11-26T03:39:55.170Z,4.00
2017-11-26T03:40:55.139Z,4.00
2017-11-26T03:41:55.113Z,4.00
2017-11-26T03:42:55.089Z,4.00
2017-11-26T03:43:55.069Z,4.00
2017-11-26T03:44:55.055Z,4.00
2017-11-26T03:45:55.019Z,4.00
2017-11-26T03:46:54.998Z,0.00
2017-11-26T03:47:54.979Z,4.00
2017-11-26T03:48:54.956Z,4.00
2017-11-26T03:49:54.924Z,4.00
2017-11-26T03:50:54.900Z,4.00
2017-11-26T03:51:54.918Z,4.00
2017-11-26T03:52:54.859Z,4.00
2017-11-26T03:53:54.831Z,0.00
2017-11-26T03:54:54.807Z,4.00
2017-11-26T03:55:54.787Z,0.00
2017-11-26T03:56:54.756Z,0.00
2017-11-26T03:57:54.749Z,4.00
2017-11-26T03:58:54.709Z,0.00
2017-11-26T03:59:54.695Z,0.00
2017-11-26T04:00:54.670Z,0.00
2017-11-26T04:01:54.665Z,0.00
2017-11-26T04:02:54.615Z,0.00
2017-11-26T04:03:54.596Z,4.00
2017-11-26T04:04:54.567Z,4.00
2017-11-26T04:05:54.544Z,0.00
2017-11-26T04:06:54.520Z,0.00
2017-11-26T04:07:54.506Z,0.00
2017-11-26T04:08:54.475Z,0.00
2017-11-26T04:09:54.450Z,0.00
2017-11-26T04:10:54.424Z,0.00
2017-11-26T04:11:54.495Z,0.00
2017-11-26T04:12:54.379Z,0.00
2017-11-26T04:13:54.357Z,0.00
2017-11-26T04:14:54.333Z,0.00
2017-11-26T04:15:54.312Z,0.00
2017-11-26T04:16:54.290Z,0.00
2017-11-26T04:17:54.401Z,0.00
2017-11-26T04:18:54.244Z,0.00
2017-11-26T04:19:54.213Z,0.00
2017-11-26T04:20:54.192Z,0.00
2017-11-26T04:21:54.164Z,0.00
2017-11-26T04:22:54.147Z,4.00
2017-11-26T04:23:54.119Z,0.00
2017-11-26T04:24:54.096Z,0.00
2017-11-26T04:25:54.072Z,0.00
2017-11-26T04:26:54.046Z,0.00
2017-11-26T04:27:54.045Z,0.00
2017-11-26T04:28:54.003Z,4.00
2017-11-26T04:29:53.974Z,0.00
2017-11-26T04:30:53.951Z,0.00
2017-11-26T04:31:53.933Z,0.00
2017-11-26T04:32:53.904Z,0.00
2017-11-26T04:33:53.882Z,4.00
2017-11-26T04:34:53.858Z,0.00
2017-11-26T04:35:53.834Z,0.00
2017-11-26T04:36:53.829Z,0.00
2017-11-26T04:37:53.785Z,0.00
2017-11-26T04:38:53.761Z,0.00
2017-11-26T04:39:53.742Z,0.00
2017-11-26T04:40:53.717Z,0.00
2017-11-26T04:41:53.690Z,0.00
2017-11-26T04:42:53.665Z,0.00
2017-11-26T04:43:53.648Z,0.00
2017-11-26T04:44:53.619Z,0.00
2017-11-26T04:45:53.600Z,0.00
2017-11-26T04:46:53.569Z,0.00
2017-11-26T04:47:53.543Z,0.00
2017-11-26T04:48:53.521Z,4.00
2017-11-26T04:49:53.502Z,0.00
2017-11-26T04:50:53.475Z,0.00
2017-11-26T04:51:53.450Z,0.00
2017-11-26T04:52:53.438Z,0.00
2017-11-26T04:53:53.401Z,0.00
2017-11-26T04:54:53.381Z,0.00
2017-11-26T04:55:53.356Z,4.00
2017-11-26T04:56:53.329Z,4.00
2017-11-26T04:57:53.307Z,0.00
2017-11-26T04:58:53.283Z,0.00
2017-11-26T04:59:53.259Z,0.00
2017-11-26T05:00:53.236Z,0.00
2017-11-26T05:01:53.216Z,0.00
2017-11-26T05:02:53.196Z,0.00
2017-11-26T05:03:53.162Z,0.00
2017-11-26T05:04:53.138Z,0.00
2017-11-26T05:05:53.118Z,0.00
2017-11-26T05:06:53.119Z,0.00
2017-11-26T05:07:53.077Z,0.00
2017-11-26T05:08:53.045Z,0.00
2017-11-26T05:09:53.027Z,0.00
2017-11-26T05:10:52.995Z,0.00
2017-11-26T05:11:52.969Z,0.00
2017-11-26T05:12:52.954Z,0.00
2017-11-26T05:13:52.925Z,0.00
2017-11-26T05:14:52.897Z,0.00
2017-11-26T05:15:52.877Z,0.00
2017-11-26T05:16:52.900Z,0.00
2017-11-26T05:17:52.829Z,0.00
2017-11-26T05:18:52.821Z,0.00
2017-11-26T05:19:52.790Z,0.00
2017-11-26T05:20:52.808Z,0.00
2017-11-26T05:21:52.729Z,0.00
2017-11-26T05:22:52.840Z,0.00
2017-11-26T05:23:52.685Z,0.00
2017-11-26T05:24:52.658Z,0.00
2017-11-26T05:25:52.633Z,0.00
2017-11-26T05:26:52.616Z,0.00
2017-11-26T05:27:52.595Z,0.00
2017-11-26T05:28:52.562Z,0.00
2017-11-26T05:29:52.537Z,0.00
2017-11-26T05:30:52.515Z,0.00
2017-11-26T05:31:52.492Z,0.00
2017-11-26T05:32:52.474Z,0.00
2017-11-26T05:33:52.445Z,0.00
2017-11-26T05:34:52.417Z,0.00
2017-11-26T05:35:52.401Z,0.00
2017-11-26T05:36:52.377Z,0.00
2017-11-26T05:37:52.344Z,0.00
2017-11-26T05:38:52.328Z,0.00
2017-11-26T05:39:52.297Z,0.00
2017-11-26T05:40:52.281Z,0.00
2017-11-26T05:41:52.250Z,0.00
2017-11-26T05:42:52.225Z,0.00
2017-11-26T05:43:52.217Z,0.00
2017-11-26T05:44:52.175Z,0.00
2017-11-26T05:45:52.152Z,0.00
2017-11-26T05:46:52.126Z,0.00
2017-11-26T05:47:52.103Z,0.00
2017-11-26T05:48:52.080Z,0.00
2017-11-26T05:49:52.057Z,0.00
2017-11-26T05:50:52.031Z,0.00
2017-11-26T05:51:52.005Z,0.00
2017-11-26T05:52:51.981Z,0.00
2017-11-26T05:53:51.958Z,0.00
2017-11-26T05:54:51.936Z,0.00
2017-11-26T05:55:51.908Z,0.00
2017-11-26T05:56:51.884Z,0.00
2017-11-26T05:57:51.876Z,0.00
2017-11-26T05:58:51.844Z,0.00
2017-11-26T05:59:51.812Z,0.00
2017-11-26T06:00:51.789Z,0.00
2017-11-26T06:01:51.759Z,0.00
2017-11-26T06:02:51.739Z,4.00
2017-11-26T06:03:51.717Z,4.00
2017-11-26T06:04:51.688Z,4.00
2017-11-26T06:05:51.661Z,4.00
2017-11-26T06:06:51.639Z,4.00
2017-11-26T06:07:51.617Z,4.00
2017-11-26T06:08:51.592Z,4.00
2017-11-26T06:09:51.569Z,4.00
2017-11-26T06:10:51.546Z,4.00
2017-11-26T06:11:51.522Z,4.00
2017-11-26T06:12:51.496Z,4.00
2017-11-26T06:13:51.488Z,4.00
2017-11-26T06:14:51.448Z,4.00
2017-11-26T06:15:51.421Z,4.00
2017-11-26T06:16:51.402Z,4.00
2017-11-26T06:17:51.446Z,4.00
2017-11-26T06:18:51.348Z,4.00
2017-11-26T06:19:51.324Z,4.00
2017-11-26T06:20:51.301Z,4.00
2017-11-26T06:21:51.275Z,4.00
2017-11-26T06:22:51.250Z,4.00
2017-11-26T06:23:51.311Z,4.00
2017-11-26T06:24:51.205Z,4.00
2017-11-26T06:25:51.177Z,4.00
2017-11-26T06:26:51.154Z,4.00
2017-11-26T06:27:51.242Z,4.00
2017-11-26T06:28:51.112Z,4.00
2017-11-26T06:29:51.084Z,4.00
2017-11-26T06:30:51.057Z,4.00
2017-11-26T06:31:51.033Z,8.00
2017-11-26T06:32:51.009Z,8.00
2017-11-26T06:33:50.985Z,4.00
2017-11-26T06:34:50.962Z,8.00
2017-11-26T06:35:50.935Z,8.00
2017-11-26T06:36:50.912Z,8.00
2017-11-26T06:37:50.887Z,8.00
2017-11-26T06:38:50.863Z,12.00
2017-11-26T06:39:50.847Z,8.00
2017-11-26T06:40:50.814Z,12.00
2017-11-26T06:41:50.792Z,16.00
2017-11-26T06:42:50.767Z,12.00
2017-11-26T06:43:50.765Z,16.00
2017-11-26T06:44:50.721Z,20.00
2017-11-26T06:45:50.694Z,24.00
2017-11-26T06:46:50.681Z,24.00
2017-11-26T06:47:50.661Z,28.00
2017-11-26T06:48:50.623Z,28.00
2017-11-26T06:49:50.601Z,36.00
2017-11-26T06:50:50.572Z,48.00
2017-11-26T06:51:50.550Z,52.00
2017-11-26T06:52:50.526Z,56.00
2017-11-26T06:53:50.500Z,64.00
2017-11-26T06:54:50.480Z,72.00
2017-11-26T06:55:50.452Z,76.00
2017-11-26T06:56:50.429Z,84.00
2017-11-26T06:57:50.405Z,92.00
2017-11-26T06:58:50.381Z,100.00
2017-11-26T06:59:50.360Z,100.00
2017-11-26T07:00:50.333Z,124.00
2017-11-26T07:01:50.314Z,152.00
2017-11-26T07:02:50.284Z,156.00
2017-11-26T07:03:50.261Z,148.00
2017-11-26T07:04:50.237Z,152.00
2017-11-26T07:05:50.215Z,188.00
2017-11-26T07:06:50.188Z,220.00
2017-11-26T07:07:50.161Z,184.00
2017-11-26T07:08:50.140Z,184.00
2017-11-26T07:09:50.119Z,180.00
2017-11-26T07:10:50.093Z,256.00
2017-11-26T07:11:50.070Z,296.00
2017-11-26T07:12:50.049Z,340.00
2017-11-26T07:13:50.020Z,388.00
2017-11-26T07:14:49.997Z,332.00
2017-11-26T07:15:49.972Z,308.00
2017-11-26T07:16:49.950Z,316.00
2017-11-26T07:17:49.926Z,396.00
2017-11-26T07:18:49.927Z,408.00
2017-11-26T07:19:49.884Z,504.00
2017-11-26T07:20:49.857Z,516.00
2017-11-26T07:21:49.827Z,456.00
2017-11-26T07:22:49.834Z,568.00
2017-11-26T07:23:49.781Z,776.00
2017-11-26T07:24:49.796Z,596.00
2017-11-26T07:25:49.733Z,360.00
2017-11-26T07:26:49.707Z,392.00
2017-11-26T07:27:49.693Z,500.00
2017-11-26T07:28:49.759Z,488.00
2017-11-26T07:29:49.639Z,664.00
2017-11-26T07:30:49.629Z,672.00
2017-11-26T07:31:49.590Z,596.00
2017-11-26T07:32:49.663Z,532.00
2017-11-26T07:33:49.550Z,460.00
2017-11-26T07:34:49.536Z,732.00
2017-11-26T07:35:49.495Z,912.00
2017-11-26T07:36:49.473Z,856.00
2017-11-26T07:37:49.465Z,832.00
2017-11-26T07:38:49.548Z,816.00
2017-11-26T07:39:49.399Z,988.00
2017-11-26T07:40:49.376Z,1020.00
2017-11-26T07:41:49.353Z,1088.00
2017-11-26T07:42:49.328Z,1092.00
2017-11-26T07:43:49.314Z,1124.00
2017-11-26T07:44:49.294Z,980.00
2017-11-26T07:45:49.258Z,1028.00
2017-11-26T07:46:49.237Z,1120.00
2017-11-26T07:47:49.224Z,1444.00
2017-11-26T07:48:49.187Z,1544.00
2017-11-26T07:49:49.164Z,1344.00
2017-11-26T07:50:49.144Z,904.00
2017-11-26T07:51:49.117Z,968.00
2017-11-26T07:52:49.103Z,1228.00
2017-11-26T07:53:49.072Z,1808.00
2017-11-26T07:54:49.044Z,1608.00
2017-11-26T07:55:49.022Z,1152.00
2017-11-26T07:56:49.000Z,1448.00
2017-11-26T07:57:48.990Z,1540.00
2017-11-26T07:58:48.951Z,1548.00
2017-11-26T07:59:48.933Z,2024.00
2017-11-26T08:00:48.903Z,1844.00
2017-11-26T08:01:48.882Z,2128.00
2017-11-26T08:02:48.854Z,2624.00
2017-11-26T08:03:48.841Z,1488.00
2017-11-26T08:04:48.809Z,992.00
2017-11-26T08:05:48.785Z,1396.00
2017-11-26T08:06:48.759Z,2208.00
2017-11-26T08:07:48.759Z,1792.00
2017-11-26T08:08:48.715Z,1376.00
2017-11-26T08:09:48.693Z,1460.00
2017-11-26T08:10:48.678Z,1732.00
2017-11-26T08:11:48.645Z,2024.00
2017-11-26T08:12:48.621Z,2200.00
2017-11-26T08:13:48.600Z,2584.00
2017-11-26T08:14:48.612Z,1712.00
2017-11-26T08:15:48.551Z,1588.00
2017-11-26T08:16:48.542Z,2024.00
2017-11-26T08:17:48.505Z,2156.00
2017-11-26T08:18:48.482Z,3108.00
2017-11-26T08:19:48.456Z,4088.00
2017-11-26T08:20:48.443Z,4816.00
2017-11-26T08:21:48.411Z,3484.00
2017-11-26T08:22:48.387Z,3424.00
2017-11-26T08:23:48.367Z,4404.00
2017-11-26T08:24:48.341Z,4568.00
2017-11-26T08:25:48.318Z,5372.00
2017-11-26T08:26:48.296Z,4568.00
2017-11-26T08:27:48.294Z,3728.00
2017-11-26T08:28:48.254Z,4468.00
2017-11-26T08:29:48.244Z,4184.00
2017-11-26T08:30:48.216Z,2620.00
2017-11-26T08:31:48.179Z,2868.00
2017-11-26T08:32:48.157Z,3016.00
2017-11-26T08:33:48.145Z,3984.00
2017-11-26T08:34:48.110Z,4304.00
2017-11-26T08:35:48.086Z,3600.00
2017-11-26T08:36:48.111Z,3480.00
2017-11-26T08:37:48.039Z,3532.00
2017-11-26T08:38:48.019Z,4204.00
2017-11-26T08:39:48.018Z,4612.00
2017-11-26T08:40:47.969Z,4836.00
2017-11-26T08:41:47.947Z,4796.00
2017-11-26T08:42:47.926Z,3912.00
2017-11-26T08:43:47.955Z,3892.00
2017-11-26T08:44:47.879Z,4472.00
2017-11-26T08:45:47.856Z,4716.00
2017-11-26T08:46:47.836Z,4600.00
2017-11-26T08:47:47.823Z,4436.00
2017-11-26T08:48:47.788Z,3848.00
2017-11-26T08:49:47.778Z,4008.00
2017-11-26T08:50:47.745Z,5732.00
2017-11-26T08:51:47.719Z,7692.00
2017-11-26T08:52:47.706Z,7360.00
2017-11-26T08:53:47.690Z,6136.00
2017-11-26T08:54:47.652Z,5292.00
2017-11-26T08:55:47.630Z,4320.00
2017-11-26T08:56:47.605Z,5776.00
2017-11-26T08:57:47.581Z,6284.00
2017-11-26T08:58:47.563Z,6020.00
2017-11-26T08:59:47.543Z,6104.00
2017-11-26T09:00:47.520Z,5816.00
2017-11-26T09:01:47.501Z,7472.00
2017-11-26T09:02:47.470Z,8600.00
2017-11-26T09:03:47.446Z,7084.00
2017-11-26T09:04:47.433Z,6540.00
2017-11-26T09:05:47.409Z,5784.00
2017-11-26T09:06:47.383Z,8080.00
2017-11-26T09:07:47.360Z,4284.00
2017-11-26T09:08:47.341Z,5076.00
2017-11-26T09:09:47.314Z,5444.00
2017-11-26T09:10:47.295Z,4764.00
2017-11-26T09:11:47.273Z,5340.00
2017-11-26T09:12:47.256Z,5104.00
2017-11-26T09:13:47.230Z,5488.00
2017-11-26T09:14:47.205Z,5088.00
2017-11-26T09:15:47.188Z,5132.00
2017-11-26T09:16:47.161Z,4600.00
2017-11-26T09:17:47.139Z,4924.00
2017-11-26T09:18:47.121Z,5300.00
2017-11-26T09:19:47.094Z,4780.00
2017-11-26T09:20:47.071Z,5532.00
2017-11-26T09:21:47.074Z,5552.00
2017-11-26T09:22:47.037Z,5704.00
2017-11-26T09:23:47.008Z,4864.00
2017-11-26T09:24:46.996Z,5952.00
2017-11-26T09:25:46.961Z,5008.00
2017-11-26T09:26:46.949Z,4696.00
2017-11-26T09:27:46.924Z,5708.00
2017-11-26T09:28:46.907Z,7420.00
2017-11-26T09:29:46.889Z,8452.00
2017-11-26T09:30:46.852Z,6940.00
2017-11-26T09:31:46.840Z,8020.00
2017-11-26T09:32:46.820Z,6064.00
2017-11-26T09:33:46.792Z,7088.00
2017-11-26T09:34:46.768Z,6640.00
2017-11-26T09:35:46.749Z,4988.00
2017-11-26T09:36:46.751Z,4732.00
2017-11-26T09:37:46.702Z,4504.00
2017-11-26T09:38:46.682Z,4180.00
2017-11-26T09:39:46.667Z,3192.00
2017-11-26T09:40:46.647Z,3404.00
2017-11-26T09:41:46.618Z,3064.00
2017-11-26T09:42:46.599Z,3264.00
2017-11-26T09:43:46.573Z,3172.00
2017-11-26T09:44:46.555Z,2892.00
2017-11-26T09:45:46.528Z,4208.00
2017-11-26T09:46:46.513Z,6264.00
2017-11-26T09:47:46.493Z,5760.00
2017-11-26T09:48:46.537Z,8064.00
2017-11-26T09:49:46.441Z,6296.00
2017-11-26T09:50:46.443Z,6744.00
2017-11-26T09:51:46.400Z,6368.00
2017-11-26T09:52:46.374Z,8648.00
2017-11-26T09:53:46.358Z,11300.00
2017-11-26T09:54:46.383Z,12640.00
2017-11-26T09:55:46.321Z,11528.00
2017-11-26T09:56:46.289Z,11436.00
2017-11-26T09:57:46.266Z,8196.00
2017-11-26T09:58:46.246Z,5220.00
2017-11-26T09:59:46.230Z,4196.00
2017-11-26T10:00:46.249Z,4540.00
2017-11-26T10:01:46.185Z,4432.00
2017-11-26T10:02:46.164Z,3544.00
2017-11-26T10:03:46.145Z,4080.00
2017-11-26T10:04:46.139Z,3964.00
2017-11-26T10:05:46.097Z,3688.00
2017-11-26T10:06:46.075Z,4088.00
2017-11-26T10:07:46.056Z,3680.00
2017-11-26T10:08:46.035Z,4076.00
2017-11-26T10:09:46.019Z,3852.00
2017-11-26T10:10:46.021Z,3444.00
2017-11-26T10:11:45.970Z,5356.00
2017-11-26T10:12:45.952Z,6152.00
2017-11-26T10:13:45.927Z,4180.00
2017-11-26T10:14:46.014Z,4300.00
2017-11-26T10:15:45.884Z,5416.00
2017-11-26T10:16:45.871Z,5624.00
2017-11-26T10:17:45.842Z,5308.00
2017-11-26T10:18:45.820Z,5152.00
2017-11-26T10:19:45.806Z,4356.00
2017-11-26T10:20:45.789Z,3952.00
2017-11-26T10:21:45.762Z,5576.00
2017-11-26T10:22:45.732Z,5920.00
2017-11-26T10:23:45.719Z,3000.00
2017-11-26T10:24:45.716Z,2660.00
2017-11-26T10:25:45.678Z,2668.00
2017-11-26T10:26:45.770Z,2872.00
2017-11-26T10:27:45.633Z,2516.00
2017-11-26T10:28:45.617Z,2640.00
2017-11-26T10:29:45.585Z,4052.00
2017-11-26T10:30:45.564Z,5484.00
2017-11-26T10:31:45.545Z,4180.00
2017-11-26T10:32:45.545Z,6248.00
2017-11-26T10:33:45.509Z,8512.00
2017-11-26T10:34:45.480Z,9092.00
2017-11-26T10:35:45.466Z,7524.00
2017-11-26T10:36:45.441Z,6592.00
2017-11-26T10:37:45.435Z,7584.00
2017-11-26T10:38:45.390Z,5316.00
2017-11-26T10:39:45.370Z,4616.00
2017-11-26T10:40:45.351Z,4124.00
2017-11-26T10:41:45.326Z,4624.00
2017-11-26T10:42:45.302Z,5284.00
2017-11-26T10:43:45.289Z,6652.00
2017-11-26T10:44:45.260Z,5228.00
2017-11-26T10:45:45.240Z,4012.00
2017-11-26T10:46:45.222Z,3980.00
2017-11-26T10:47:45.197Z,3936.00
2017-11-26T10:48:45.185Z,3336.00
2017-11-26T10:49:45.165Z,2696.00
2017-11-26T10:50:45.143Z,3432.00
2017-11-26T10:51:45.116Z,3344.00
2017-11-26T10:52:45.099Z,3820.00
2017-11-26T10:53:45.083Z,5604.00
2017-11-26T10:54:45.048Z,5516.00
2017-11-26T10:55:45.032Z,5604.00
2017-11-26T10:56:45.010Z,5592.00
2017-11-26T10:57:44.985Z,7100.00
2017-11-26T10:58:44.966Z,5432.00
2017-11-26T10:59:44.954Z,6084.00
2017-11-26T11:00:44.928Z,6672.00
2017-11-26T11:01:44.904Z,5636.00
2017-11-26T11:02:44.877Z,4964.00
2017-11-26T11:03:44.867Z,2796.00
2017-11-26T11:04:44.834Z,2436.00
2017-11-26T11:05:44.814Z,2284.00
2017-11-26T11:06:44.793Z,2068.00
2017-11-26T11:07:44.776Z,2404.00
2017-11-26T11:08:44.755Z,2760.00
2017-11-26T11:09:44.735Z,3152.00
2017-11-26T11:10:44.714Z,2724.00
2017-11-26T11:11:44.687Z,2672.00
2017-11-26T11:12:44.669Z,3060.00
2017-11-26T11:13:44.652Z,3112.00
2017-11-26T11:14:44.642Z,3748.00
2017-11-26T11:15:44.624Z,3476.00
2017-11-26T11:16:44.579Z,3484.00
2017-11-26T11:17:44.558Z,3452.00
2017-11-26T11:18:44.535Z,4168.00
2017-11-26T11:19:44.524Z,5808.00
2017-11-26T11:20:44.492Z,6596.00
2017-11-26T11:21:44.472Z,5344.00
2017-11-26T11:22:44.461Z,6312.00
2017-11-26T11:23:44.437Z,9652.00
2017-11-26T11:24:44.416Z,12708.00
2017-11-26T11:25:44.385Z,11000.00
2017-11-26T11:26:44.369Z,8144.00
2017-11-26T11:27:44.344Z,9544.00
2017-11-26T11:28:44.334Z,7744.00
2017-11-26T11:29:44.309Z,8812.00
2017-11-26T11:30:44.285Z,11008.00
2017-11-26T11:31:44.281Z,8444.00
2017-11-26T11:32:44.248Z,9268.00
2017-11-26T11:33:44.223Z,7600.00
2017-11-26T11:34:44.216Z,5268.00
2017-11-26T11:35:44.207Z,5388.00
2017-11-26T11:36:44.152Z,5128.00
2017-11-26T11:37:44.143Z,5284.00
2017-11-26T11:38:44.113Z,5420.00
2017-11-26T11:39:44.101Z,6372.00
2017-11-26T11:40:44.076Z,6580.00
2017-11-26T11:41:44.059Z,7320.00
2017-11-26T11:42:44.032Z,8488.00
2017-11-26T11:43:44.017Z,9144.00
2017-11-26T11:44:43.999Z,7444.00
2017-11-26T11:45:43.981Z,8800.00
2017-11-26T11:46:43.944Z,8716.00
2017-11-26T11:47:43.935Z,8304.00
2017-11-26T11:48:43.910Z,7292.00
2017-11-26T11:49:43.884Z,7284.00
2017-11-26T11:50:43.861Z,6772.00
2017-11-26T11:51:43.953Z,7364.00
2017-11-26T11:52:43.821Z,8128.00
2017-11-26T11:53:43.797Z,11192.00
2017-11-26T11:54:43.781Z,9532.00
2017-11-26T11:55:43.821Z,9360.00
2017-11-26T11:56:43.751Z,10088.00
2017-11-26T11:57:43.828Z,9028.00
2017-11-26T11:58:43.704Z,8224.00
2017-11-26T11:59:43.675Z,6592.00
2017-11-26T12:00:43.658Z,6760.00
2017-11-26T12:01:43.695Z,7736.00
2017-11-26T12:02:43.622Z,8152.00
2017-11-26T12:03:43.597Z,7484.00
2017-11-26T12:04:43.583Z,7640.00
2017-11-26T12:05:43.554Z,7604.00
2017-11-26T12:06:43.535Z,5812.00
2017-11-26T12:07:43.577Z,4984.00
2017-11-26T12:08:43.502Z,5756.00
2017-11-26T12:09:43.474Z,6880.00
2017-11-26T12:10:43.458Z,8108.00
2017-11-26T12:11:43.532Z,8112.00
2017-11-26T12:12:43.408Z,8040.00
2017-11-26T12:13:43.407Z,7584.00
2017-11-26T12:14:43.370Z,6888.00
2017-11-26T12:15:43.351Z,5924.00
2017-11-26T12:16:43.353Z,5268.00
2017-11-26T12:17:43.307Z,5628.00
2017-11-26T12:18:43.286Z,6496.00
2017-11-26T12:19:43.285Z,6404.00
2017-11-26T12:20:43.245Z,6372.00
2017-11-26T12:21:43.231Z,6652.00
2017-11-26T12:22:43.210Z,5976.00
2017-11-26T12:23:43.187Z,5752.00
2017-11-26T12:24:43.165Z,5376.00
2017-11-26T12:25:43.169Z,5924.00
2017-11-26T12:26:43.133Z,5956.00
2017-11-26T12:27:43.108Z,3728.00
2017-11-26T12:28:43.096Z,2364.00
2017-11-26T12:29:43.066Z,2608.00
2017-11-26T12:30:43.066Z,2972.00
2017-11-26T12:31:43.029Z,2644.00
2017-11-26T12:32:43.001Z,2592.00
2017-11-26T12:33:42.982Z,2560.00
2017-11-26T12:34:42.957Z,2816.00
2017-11-26T12:35:42.935Z,2460.00
2017-11-26T12:36:42.917Z,3532.00
2017-11-26T12:37:42.902Z,3248.00
2017-11-26T12:38:42.884Z,2888.00
2017-11-26T12:39:42.868Z,3516.00
2017-11-26T12:40:42.837Z,2772.00
2017-11-26T12:41:42.811Z,2372.00
2017-11-26T12:42:42.794Z,2248.00
2017-11-26T12:43:42.771Z,2172.00